Time;durP1;ratioP1;P1;durP2;ratioP2;P2;SDS_P1;SDS_P2;PMS_P1;PMS_P2;Temp;Humidity;BMP_temperature;BMP_pressure;BME280_temperature;BME280_humidity;BME280_pressure;Samples;Min_cycle;Max_cycle;Signal;HPM_P1;HPM_P2
2022/01/04 12:11:26;;;;;;;;;;;;;;;5.95;100.00;97829.75;6113423;22;2076330;-67
2022/01/04 12:13:53;;;;;;;;;;;;;;;6.08;100.00;97829.50;6216995;23;19947;-68
2022/01/04 12:16:34;;;;;;;;;;;;;;;6.04;100.00;97820.34;6218540;23;19955;-68
2022/01/04 12:19:08;;;;;;;;;;;;;;;6.09;100.00;97818.00;6217705;23;19943;-68
2022/01/04 12:21:43;;;;;;;;;;;;;;;6.14;100.00;97805.78;6228026;23;19943;-68
2022/01/04 12:24:13;;;;;;;;;;;;;;;6.11;100.00;97799.00;6218672;23;19952;-68
2022/01/04 12:26:41;;;;;;;;;;;;;;;6.25;100.00;97801.94;6219164;23;19966;-68
2022/01/04 12:29:08;;;;;;;;;;;;;;;6.13;100.00;97799.44;6217672;23;19996;-68
2022/01/04 12:31:44;;;;;;;;;;;;;;;6.08;100.00;97797.00;6216920;23;19953;-68
2022/01/04 12:34:25;;;;;;;;;;;;;;;6.06;100.00;97793.81;6218367;23;19986;-68
2022/01/04 12:36:52;;;;;;;;;;;;;;;6.03;100.00;97782.66;6218056;23;19944;-68
2022/01/04 12:39:21;;;;;;;;;;;;;;;6.05;100.00;97783.06;6217567;23;19947;-68
2022/01/04 12:41:51;;;;;;;;;;;;;;;5.95;100.00;97785.34;6217160;23;19943;-68
2022/01/04 12:44:23;;;;;;;;;;;;;;;5.92;100.00;97785.31;6217495;23;20318;-68
2022/01/04 12:46:50;;;;;;;;;;;;;;;5.93;100.00;97773.84;6228974;23;19935;-68
2022/01/04 12:49:19;;;;;;;;;;;;;;;5.93;100.00;97765.50;6217679;23;20241;-68
2022/01/04 12:51:50;;;;;;;;;;;;;;;5.95;100.00;97768.69;6218355;23;20217;-68
2022/01/04 12:54:19;;;;;;;;;;;;;;;6.01;100.00;97765.59;6228523;23;19946;-68
2022/01/04 12:56:53;;;;;;;;;;;;;;;6.02;100.00;97745.75;6217433;23;19943;-68
2022/01/04 12:59:27;;;;;;;;;;;;;;;6.06;100.00;97751.38;6229153;23;19945;-68
2022/01/04 13:01:56;;;;;;;;;;;;;;;6.04;100.00;97737.06;6217139;23;20214;-68
2022/01/04 13:04:25;;;;;;;;;;;;;;;6.13;100.00;97734.78;6216847;23;19943;-68
2022/01/04 13:06:52;;;;;;;;;;;;;;;6.20;100.00;97732.06;6216442;23;20325;-68
2022/01/04 13:09:20;;;;;;;;;;;;;;;6.21;100.00;97733.66;6217995;23;19969;-68
2022/01/04 13:11:52;;;;;;;;;;;;;;;6.26;100.00;97728.53;6218075;23;19975;-69
2022/01/04 13:14:21;;;;;;;;;;;;;;;6.22;100.00;97733.28;6217460;23;19945;-69
2022/01/04 13:16:49;;;;;;;;;;;;;;;6.19;100.00;97739.59;6216523;23;19940;-68
2022/01/04 13:19:17;;;;;;;;;;;;;;;6.20;100.00;97732.06;6217617;23;19946;-68
2022/01/04 13:21:53;;;;;;;;;;;;;;;6.20;100.00;97720.97;6216848;23;19945;-68
2022/01/04 13:24:34;;;;;;;;;;;;;;;6.13;100.00;97723.69;6218038;23;20205;-68
2022/01/04 13:27:20;;;;;;;;;;;;;;;6.12;100.00;97717.31;6228456;23;20372;-68
2022/01/04 13:30:08;;;;;;;;;;;;;;;6.17;100.00;97705.06;6216872;23;19980;-68
2022/01/04 13:32:41;;;;;;;;;;;;;;;6.18;100.00;97699.16;6199496;23;19958;-68
2022/01/04 13:35:10;;;;;;;;;;;;;;;6.20;100.00;97707.06;6228617;23;19949;-68
2022/01/04 13:37:38;;;;;;;;;;;;;;;6.12;100.00;97706.22;6217677;23;20002;-68
2022/01/04 13:40:08;;;;;;;;;;;;;;;6.13;100.00;97709.78;6216644;23;19949;-68
2022/01/04 13:42:38;;;;;;;;;;;;;;;6.13;100.00;97707.81;6216958;23;19964;-68
2022/01/04 13:45:08;;;;;;;;;;;;;;;6.09;100.00;97706.19;6216507;23;19949;-68
2022/01/04 13:47:37;;;;;;;;;;;;;;;6.11;100.00;97714.94;6216437;23;19948;-68
2022/01/04 13:50:09;;;;;;;;;;;;;;;5.99;100.00;97715.22;6216308;23;19964;-68
2022/01/04 13:52:36;;;;;;;;;;;;;;;5.98;100.00;97708.88;6216499;23;19943;-68
2022/01/04 13:55:04;;;;;;;;;;;;;;;5.98;100.00;97711.66;6216703;23;19952;-68
2022/01/04 13:57:32;;;;;;;;;;;;;;;5.94;100.00;97708.03;6216739;23;19946;-68
2022/01/04 14:00:18;;;;;;;;;;;;;;;5.91;100.00;97706.84;6217489;23;19945;-68
2022/01/04 14:02:46;;;;;;;;;;;;;;;5.88;100.00;97702.03;6215338;23;19951;-68
2022/01/04 14:05:14;;;;;;;;;;;;;;;5.91;100.00;97706.03;6215381;23;19944;-68
2022/01/04 14:07:52;;;;;;;;;;;;;;;5.89;100.00;97695.28;6216444;23;19952;-68
2022/01/04 14:10:40;;;;;;;;;;;;;;;5.90;100.00;97705.22;6227436;23;19964;-68
2022/01/04 14:13:25;;;;;;;;;;;;;;;5.82;100.00;97684.09;6215853;23;20001;-68
2022/01/04 14:16:05;;;;;;;;;;;;;;;5.85;100.00;97702.78;6215846;23;19949;-68
2022/01/04 14:18:33;;;;;;;;;;;;;;;5.78;100.00;97686.06;6217147;23;19943;-68
2022/01/04 14:21:00;;;;;;;;;;;;;;;5.83;100.00;97687.69;6215737;23;19946;-68
2022/01/04 14:23:34;;;;;;;;;;;;;;;5.73;100.00;97678.06;6216547;23;19943;-68
2022/01/04 14:26:06;;;;;;;;;;;;;;;5.77;100.00;97678.13;6216066;23;20204;-68
2022/01/04 14:28:34;;;;;;;;;;;;;;;5.80;100.00;97688.44;6227549;23;19965;-68
2022/01/04 14:31:01;;;;;;;;;;;;;;;5.78;100.00;97685.25;6215848;23;19943;-68
2022/01/04 14:33:29;;;;;;;;;;;;;;;5.73;100.00;97682.81;6216457;23;19939;-68
2022/01/04 14:35:56;;;;;;;;;;;;;;;5.73;100.00;97705.81;6216362;23;20286;-68
2022/01/04 14:38:23;;;;;;;;;;;;;;;5.68;100.00;97697.84;6215980;23;19950;-68
2022/01/04 14:40:51;;;;;;;;;;;;;;;5.72;100.00;97697.88;6216274;23;19950;-68
2022/01/04 14:43:18;;;;;;;;;;;;;;;5.74;100.00;97690.78;6216231;23;19950;-68
2022/01/04 14:45:45;;;;;;;;;;;;;;;5.72;100.00;97684.78;6217109;23;20337;-68
2022/01/04 14:48:15;;;;;;;;;;;;;;;5.72;100.00;97692.34;6216162;23;19948;-68
2022/01/04 14:50:43;;;;;;;;;;;;;;;5.77;100.00;97692.00;6215600;23;19960;-68
2022/01/04 14:53:10;;;;;;;;;;;;;;;5.78;100.00;97686.06;6217135;23;20343;-68
2022/01/04 14:55:38;;;;;;;;;;;;;;;5.72;100.00;97684.78;6216335;23;20304;-68
2022/01/04 14:58:14;;;;;;;;;;;;;;;5.71;100.00;97679.63;6215453;23;19944;-68
2022/01/04 15:00:42;;;;;;;;;;;;;;;5.68;100.00;97678.41;6215161;23;19948;-68
2022/01/04 15:03:10;;;;;;;;;;;;;;;5.60;100.00;97668.41;6217175;23;19970;-68
2022/01/04 15:05:37;;;;;;;;;;;;;;;5.55;100.00;97662.44;6214105;23;19950;-69
2022/01/04 15:08:04;;;;;;;;;;;;;;;5.61;100.00;97652.59;6214995;23;19948;-68
2022/01/04 15:10:32;;;;;;;;;;;;;;;5.65;100.00;97650.66;6213709;23;19969;-68
2022/01/04 15:12:59;;;;;;;;;;;;;;;5.63;100.00;97653.78;6215305;23;19981;-69
2022/01/04 15:15:27;;;;;;;;;;;;;;;5.66;100.00;97658.59;6217247;23;19937;-69
2022/01/04 15:17:54;;;;;;;;;;;;;;;5.66;100.00;97658.59;6190298;23;19948;-70
2022/01/04 15:20:21;;;;;;;;;;;;;;;5.66;100.00;97672.47;6215881;23;19946;-69
2022/01/04 15:22:49;;;;;;;;;;;;;;;5.65;100.00;97670.84;6217610;23;19945;-69
2022/01/04 15:25:23;;;;;;;;;;;;;;;5.61;100.00;97653.38;6216001;23;19939;-68
2022/01/04 15:27:53;;;;;;;;;;;;;;;5.64;100.00;97666.50;6215990;23;19958;-67
2022/01/04 15:30:20;;;;;;;;;;;;;;;5.61;100.00;97680.31;6216433;23;19965;-69
2022/01/04 15:32:48;;;;;;;;;;;;;;;5.51;100.00;97670.72;6215735;23;20136;-69
2022/01/04 15:35:16;;;;;;;;;;;;;;;5.55;100.00;97660.44;6217314;23;19966;-68
2022/01/04 15:37:43;;;;;;;;;;;;;;;5.53;100.00;97668.34;6214937;23;19947;-68
2022/01/04 15:40:14;;;;;;;;;;;;;;;5.54;100.00;97669.16;6215776;23;20205;-68
2022/01/04 15:42:44;;;;;;;;;;;;;;;5.48;100.00;97671.47;6215946;23;20301;-68
2022/01/04 15:45:11;;;;;;;;;;;;;;;5.52;100.00;97672.31;6215527;23;19947;-68
2022/01/04 15:47:39;;;;;;;;;;;;;;;5.57;100.00;97662.84;6216314;23;20200;-68
2022/01/04 15:50:07;;;;;;;;;;;;;;;5.62;100.00;97666.09;6217349;23;19982;-68
2022/01/04 15:52:35;;;;;;;;;;;;;;;5.62;100.00;97663.31;6219110;23;19943;-68
2022/01/04 15:55:03;;;;;;;;;;;;;;;5.53;100.00;97654.47;6219370;23;19939;-68
2022/01/04 15:57:31;;;;;;;;;;;;;;;5.53;100.00;97648.13;6217682;23;19947;-68
2022/01/04 15:59:58;;;;;;;;;;;;;;;5.59;100.00;97657.72;6217033;23;19962;-68
2022/01/04 16:02:28;;;;;;;;;;;;;;;5.62;100.00;97668.06;6216090;23;20059;-68
2022/01/04 16:04:55;;;;;;;;;;;;;;;5.61;100.00;97666.44;6216882;23;19951;-68
2022/01/04 16:07:23;;;;;;;;;;;;;;;5.60;100.00;97659.31;6216385;23;19954;-68
2022/01/04 16:09:51;;;;;;;;;;;;;;;5.64;100.00;97660.16;6217752;23;19971;-68
2022/01/04 16:12:21;;;;;;;;;;;;;;;5.68;100.00;97650.69;6190308;23;19968;-68
2022/01/04 16:14:49;;;;;;;;;;;;;;;5.64;100.00;97655.41;6218179;23;19957;-68
2022/01/04 16:22:51;;;;;;;;;;;;;;;5.57;100.00;97644.25;6216533;23;19951;-68
2022/01/04 16:25:18;;;;;;;;;;;;;;;5.59;100.00;97652.97;6217223;23;19949;-68
2022/01/04 16:27:46;;;;;;;;;;;;;;;5.56;100.00;97645.41;6218442;23;19948;-68
2022/01/04 16:30:14;;;;;;;;;;;;;;;5.56;100.00;97639.88;6218902;23;20012;-68
2022/01/04 16:32:42;;;;;;;;;;;;;;;5.55;100.00;97643.81;6192369;23;19950;-68
2022/01/04 16:35:10;;;;;;;;;;;;;;;5.58;100.00;97639.47;6215551;23;20006;-68
2022/01/04 16:37:37;;;;;;;;;;;;;;;5.54;100.00;97638.66;6217235;23;19963;-68
2022/01/04 16:40:09;;;;;;;;;;;;;;;5.50;100.00;97624.72;6217827;23;20210;-68
2022/01/04 16:42:37;;;;;;;;;;;;;;;5.51;100.00;97631.09;6218194;23;19948;-68
2022/01/04 16:45:05;;;;;;;;;;;;;;;5.48;100.00;97632.63;6217337;23;19971;-68
2022/01/04 16:47:33;;;;;;;;;;;;;;;5.49;100.00;97639.00;6216602;23;19953;-68
2022/01/04 16:50:01;;;;;;;;;;;;;;;5.51;100.00;97623.56;6216395;23;19960;-68
2022/01/04 16:52:28;;;;;;;;;;;;;;;5.54;100.00;97631.13;6217242;23;19949;-68
2022/01/04 16:54:56;;;;;;;;;;;;;;;5.55;100.00;97629.94;6217023;23;19957;-68
2022/01/04 16:57:24;;;;;;;;;;;;;;;5.60;100.00;97629.59;6217267;23;20328;-68
2022/01/04 16:59:51;;;;;;;;;;;;;;;5.54;100.00;97625.59;6191570;23;20205;-68
2022/01/04 17:02:19;;;;;;;;;;;;;;;5.51;100.00;97629.13;6219223;23;19939;-69
2022/01/04 17:04:59;;;;;;;;;;;;;;;5.50;100.00;97630.28;6229448;23;19939;-68
2022/01/04 17:07:27;;;;;;;;;;;;;;;5.52;100.00;97625.19;6219820;23;19945;-68
2022/01/04 17:09:57;;;;;;;;;;;;;;;5.53;100.00;97626.75;6217585;23;19971;-68
2022/01/04 17:17:41;;;;;;;;;;;;;;;5.55;100.00;97616.06;6218497;23;20209;-68
2022/01/04 17:20:09;;;;;;;;;;;;;;;5.58;100.00;97628.38;6218216;23;19953;-68
2022/01/04 17:22:37;;;;;;;;;;;;;;;5.64;100.00;97627.66;6219637;23;19946;-68
2022/01/04 17:25:07;;;;;;;;;;;;;;;5.61;100.00;97622.88;6217413;23;19954;-68
2022/01/04 17:27:36;;;;;;;;;;;;;;;5.66;100.00;97624.50;6218546;23;19954;-68
2022/01/04 17:30:05;;;;;;;;;;;;;;;5.60;100.00;97620.50;6217725;23;19970;-68
2022/01/04 17:32:32;;;;;;;;;;;;;;;5.64;100.00;97618.53;6218398;23;19947;-68
2022/01/04 17:35:00;;;;;;;;;;;;;;;5.62;100.00;97618.94;6217344;23;19964;-68
2022/01/04 17:37:29;;;;;;;;;;;;;;;5.62;100.00;97610.63;6216076;23;20359;-68
2022/01/04 17:40:09;;;;;;;;;;;;;;;5.61;100.00;97613.75;6216665;23;19956;-68
2022/01/04 17:42:36;;;;;;;;;;;;;;;5.60;100.00;97607.41;6217948;23;19988;-68
2022/01/04 17:45:05;;;;;;;;;;;;;;;5.53;100.00;97612.09;6217478;23;19943;-68
2022/01/04 17:47:32;;;;;;;;;;;;;;;5.50;100.00;97599.78;6219054;23;19954;-68
2022/01/04 17:50:00;;;;;;;;;;;;;;;5.46;100.00;97601.72;6217488;23;19967;-68
2022/01/04 17:52:30;;;;;;;;;;;;;;;5.49;100.00;97600.97;6218996;23;19943;-68
2022/01/04 17:54:57;;;;;;;;;;;;;;;5.50;100.00;97605.31;6218000;23;19945;-68
2022/01/04 17:57:25;;;;;;;;;;;;;;;5.46;100.00;97606.47;6218019;23;19946;-68
2022/01/04 17:59:53;;;;;;;;;;;;;;;5.46;100.00;97601.72;6217609;23;19947;-68
2022/01/04 18:02:21;;;;;;;;;;;;;;;5.43;100.00;97601.72;6217637;23;19978;-68
2022/01/04 18:04:48;;;;;;;;;;;;;;;5.46;100.00;97612.81;6217287;23;20318;-68
2022/01/04 18:07:19;;;;;;;;;;;;;;;5.51;100.00;97611.66;6217556;23;19945;-68
2022/01/04 18:09:47;;;;;;;;;;;;;;;5.51;100.00;97614.44;6216906;23;19957;-68
2022/01/04 18:12:15;;;;;;;;;;;;;;;5.47;100.00;97606.09;6217036;23;19976;-68
2022/01/04 18:14:43;;;;;;;;;;;;;;;5.44;100.00;97608.84;6216867;23;19948;-68
2022/01/04 18:17:10;;;;;;;;;;;;;;;5.43;100.00;97621.13;6217263;23;19967;-68
2022/01/04 18:19:38;;;;;;;;;;;;;;;5.43;100.00;97621.91;6217322;23;20177;-68
2022/01/04 18:22:06;;;;;;;;;;;;;;;5.45;100.00;97616.78;6216843;23;19988;-68
2022/01/04 18:24:33;;;;;;;;;;;;;;;5.47;100.00;97625.53;6217361;23;20311;-68
2022/01/04 18:27:01;;;;;;;;;;;;;;;5.50;100.00;97635.81;6217347;23;19959;-68
2022/01/04 18:29:28;;;;;;;;;;;;;;;5.46;100.00;97623.91;6217457;23;20212;-68
2022/01/04 18:31:56;;;;;;;;;;;;;;;5.51;100.00;97640.19;6217291;23;19969;-68
2022/01/04 18:34:23;;;;;;;;;;;;;;;5.54;100.00;97630.31;6218854;23;19935;-68
2022/01/04 18:36:50;;;;;;;;;;;;;;;5.48;100.00;97626.31;6218737;23;20619;-68
2022/01/04 18:39:18;;;;;;;;;;;;;;;5.47;100.00;97631.06;6191242;23;19948;-68
2022/01/04 18:41:45;;;;;;;;;;;;;;;5.53;100.00;97617.63;6218691;23;19946;-68
2022/01/04 18:44:12;;;;;;;;;;;;;;;5.50;100.00;97635.06;6217442;23;19948;-68
2022/01/04 18:46:40;;;;;;;;;;;;;;;5.50;100.00;97624.72;6217334;23;19950;-68
2022/01/04 18:49:07;;;;;;;;;;;;;;;5.48;100.00;97627.09;6218822;23;19943;-68
2022/01/04 18:51:36;;;;;;;;;;;;;;;5.50;100.00;97618.41;6218426;23;20353;-68
2022/01/04 18:54:03;;;;;;;;;;;;;;;5.47;100.00;97617.19;6218098;23;19956;-68
2022/01/04 18:56:35;;;;;;;;;;;;;;;5.47;100.00;97624.72;6217633;23;19956;-68
2022/01/04 18:59:03;;;;;;;;;;;;;;;5.50;100.00;97626.72;6216511;23;20216;-68
2022/01/04 19:01:31;;;;;;;;;;;;;;;5.44;100.00;97619.94;6217209;23;19948;-68
2022/01/04 19:03:59;;;;;;;;;;;;;;;5.47;100.00;97625.53;6216676;23;19951;-68
2022/01/04 19:06:27;;;;;;;;;;;;;;;5.40;100.00;97613.56;6218693;23;19945;-68
2022/01/04 19:08:54;;;;;;;;;;;;;;;5.40;100.00;97619.91;6217442;23;19958;-68
2022/01/04 19:11:24;;;;;;;;;;;;;;;5.44;100.00;97620.72;6216330;23;19966;-68
2022/01/04 19:13:52;;;;;;;;;;;;;;;5.44;100.00;97615.19;6216976;23;19948;-68
2022/01/04 19:16:19;;;;;;;;;;;;;;;5.43;100.00;97610.81;6218343;23;19941;-68
2022/01/04 19:19:02;;;;;;;;;;;;;;;5.43;100.00;97618.34;6215878;23;20031;-68
2022/01/04 19:21:30;;;;;;;;;;;;;;;5.46;100.00;97612.81;6216156;23;20404;-67
2022/01/04 19:23:57;;;;;;;;;;;;;;;5.50;100.00;97590.69;6216665;23;19954;-68
2022/01/04 19:26:25;;;;;;;;;;;;;;;5.52;100.00;97583.59;6217029;23;19946;-68
2022/01/04 19:28:52;;;;;;;;;;;;;;;5.47;100.00;97583.94;6217434;23;20408;-68
2022/01/04 19:31:24;;;;;;;;;;;;;;;5.50;100.00;97580.38;6216952;23;19998;-68
2022/01/04 19:36:22;;;;;;;;;;;;;;;5.49;100.00;97581.56;6216926;23;19950;-68
2022/01/04 19:38:56;;;;;;;;;;;;;;;5.45;100.00;97577.97;6216976;23;19959;-68
2022/01/04 19:41:28;;;;;;;;;;;;;;;5.43;100.00;97580.31;6217173;23;19944;-68
2022/01/04 19:43:56;;;;;;;;;;;;;;;5.43;100.00;97579.53;6217788;23;19944;-68
2022/01/04 19:46:24;;;;;;;;;;;;;;;5.38;100.00;97572.34;6191603;23;19979;-68
2022/01/04 19:48:52;;;;;;;;;;;;;;;5.43;100.00;97574.00;6216594;23;19957;-68
2022/01/04 19:51:19;;;;;;;;;;;;;;;5.44;100.00;97575.56;6216102;23;19968;-68
2022/01/04 19:53:47;;;;;;;;;;;;;;;5.40;100.00;97578.31;6217554;23;19948;-68
2022/01/04 19:56:16;;;;;;;;;;;;;;;5.38;100.00;97575.09;6217675;23;19948;-68
2022/01/04 19:58:44;;;;;;;;;;;;;;;5.31;100.00;97577.81;6217261;23;19945;-68
2022/01/04 20:01:16;;;;;;;;;;;;;;;5.33;100.00;97573.47;6217394;23;19948;-68
2022/01/04 20:03:44;;;;;;;;;;;;;;;5.32;100.00;97569.13;6228213;23;19945;-68
2022/01/04 20:06:11;;;;;;;;;;;;;;;5.33;100.00;97561.59;6217195;23;20162;-68
2022/01/04 20:08:39;;;;;;;;;;;;;;;5.30;100.00;97570.69;6216586;23;19944;-68
2022/01/04 20:11:06;;;;;;;;;;;;;;;5.29;100.00;97571.84;6216164;23;19968;-68
2022/01/04 20:13:33;;;;;;;;;;;;;;;5.24;100.00;97552.81;6216818;23;19972;-68
2022/01/04 20:16:01;;;;;;;;;;;;;;;5.32;100.00;97558.03;6217162;23;19956;-68
2022/01/04 20:18:30;;;;;;;;;;;;;;;5.28;100.00;97559.19;6191206;23;19948;-68
2022/01/04 20:20:57;;;;;;;;;;;;;;;5.17;100.00;97550.75;6218726;23;19943;-68
2022/01/04 20:23:26;;;;;;;;;;;;;;;5.16;100.00;97559.47;6217536;23;19942;-68
2022/01/04 20:25:53;;;;;;;;;;;;;;;5.22;100.00;97561.50;6217336;23;19940;-68
2022/01/04 20:28:20;;;;;;;;;;;;;;;5.19;100.00;97561.44;6167409;23;19994;-68
2022/01/04 20:30:48;;;;;;;;;;;;;;;5.21;100.00;97559.09;6216304;23;19954;-68
2022/01/04 20:33:15;;;;;;;;;;;;;;;5.22;100.00;97569.03;6217186;23;20252;-68
2022/01/04 20:35:42;;;;;;;;;;;;;;;5.24;100.00;97569.44;6218965;23;19982;-68
2022/01/04 20:38:10;;;;;;;;;;;;;;;5.28;100.00;97570.28;6219159;23;19939;-68
2022/01/04 20:40:37;;;;;;;;;;;;;;;5.28;100.00;97561.97;6218967;23;19953;-68
2022/01/04 20:43:05;;;;;;;;;;;;;;;5.29;100.00;97560.78;6219835;23;19946;-68
2022/01/04 20:45:32;;;;;;;;;;;;;;;5.25;100.00;97555.22;6219135;23;19948;-68
2022/01/04 20:48:00;;;;;;;;;;;;;;;5.26;100.00;97540.16;6218910;23;19940;-68
2022/01/04 20:50:28;;;;;;;;;;;;;;;5.21;100.00;97534.94;6218740;23;19954;-68
2022/01/04 20:52:56;;;;;;;;;;;;;;;5.20;100.00;97530.59;6218404;23;19975;-68
2022/01/04 20:55:23;;;;;;;;;;;;;;;5.19;100.00;97526.22;6218294;23;19977;-68
